EAI3402 EIDW-EIDL

Flight info

Callsign EAI3402
Flight time 0h 36m
Altitude 20000
Route BAMLI DCT ELBOB DCT CFN
Aircraft AT76/M-SDFGIRY/S

Departure

Time 2026-05-04 13:18
Airport Dublin Airport (EIDW)

Arrival

Time 2026-05-04 13:55
Airport Donegal Airport (EIDL)
Time Latitude Longitude Altitude Speed Heading
2026-05-04 12:49 53.42925 -6.25135 208 ft 0 kts 67°
2026-05-04 13:01 53.42925 -6.25136 207 ft 0 kts 67°
2026-05-04 13:06 53.42920 -6.25155 211 ft 5 kts 73°
2026-05-04 13:06 53.42916 -6.25197 207 ft 5 kts 102°
2026-05-04 13:07 53.42927 -6.25231 216 ft 8 kts 154°
2026-05-04 13:07 53.42930 -6.25233 215 ft 0 kts 157°
2026-05-04 13:10 53.42915 -6.25223 184 ft 6 kts 157°
2026-05-04 13:10 53.42867 -6.25188 207 ft 9 kts 157°
2026-05-04 13:11 53.42813 -6.25217 214 ft 9 kts 223°
2026-05-04 13:11 53.42769 -6.25286 207 ft 10 kts 235°
2026-05-04 13:11 53.42715 -6.25393 212 ft 13 kts 224°
2026-05-04 13:11 53.42639 -6.25515 214 ft 17 kts 224°
2026-05-04 13:12 53.42553 -6.25665 207 ft 18 kts 226°
2026-05-04 13:12 53.42460 -6.25822 207 ft 19 kts 225°
2026-05-04 13:12 53.42363 -6.25988 211 ft 21 kts 226°
2026-05-04 13:12 53.42274 -6.26180 212 ft 21 kts 248°
2026-05-04 13:13 53.42274 -6.26411 211 ft 19 kts 275°
2026-05-04 13:13 53.42286 -6.26626 207 ft 18 kts 275°
2026-05-04 13:13 53.42297 -6.26839 207 ft 18 kts 276°
2026-05-04 13:13 53.42308 -6.27048 216 ft 18 kts 275°
2026-05-04 13:14 53.42319 -6.27257 207 ft 18 kts 274°
2026-05-04 13:14 53.42330 -6.27462 207 ft 18 kts 276°
2026-05-04 13:14 53.42342 -6.27667 207 ft 17 kts 276°
2026-05-04 13:14 53.42353 -6.27868 212 ft 17 kts 276°
2026-05-04 13:15 53.42364 -6.28068 207 ft 17 kts 276°
2026-05-04 13:15 53.42374 -6.28241 212 ft 6 kts 273°
2026-05-04 13:15 53.42345 -6.28317 207 ft 10 kts 210°
2026-05-04 13:15 53.42314 -6.28326 208 ft 0 kts 172°
2026-05-04 13:16 53.42313 -6.28325 208 ft 0 kts 173°
2026-05-04 13:16 53.42304 -6.28322 208 ft 4 kts 166°
2026-05-04 13:17 53.42268 -6.28283 213 ft 11 kts 134°
2026-05-04 13:17 53.42211 -6.28150 212 ft 14 kts 118°
2026-05-04 13:17 53.42185 -6.27973 208 ft 16 kts 91°
2026-05-04 13:17 53.42163 -6.27556 215 ft 69 kts 95°
2026-05-04 13:18 53.42101 -6.26401 217 ft 126 kts 92°
2026-05-04 13:18 53.42038 -6.24819 550 ft 144 kts 91°
2026-05-04 13:18 53.41975 -6.23087 1045 ft 155 kts 92°
2026-05-04 13:18 53.41920 -6.21209 1598 ft 166 kts 90°
2026-05-04 13:19 53.41883 -6.19255 2133 ft 175 kts 89°
2026-05-04 13:19 53.41851 -6.17840 2498 ft 181 kts 90°
2026-05-04 13:19 53.42402 -6.15264 3170 ft 188 kts 37°
2026-05-04 13:19 53.43642 -6.14632 3698 ft 194 kts 353°
2026-05-04 13:20 53.44837 -6.15660 4195 ft 201 kts 313°
2026-05-04 13:20 53.45706 -6.17506 4727 ft 205 kts 309°
2026-05-04 13:20 53.46625 -6.19390 5222 ft 210 kts 310°
2026-05-04 13:20 53.47287 -6.20601 5572 ft 214 kts 315°
2026-05-04 13:21 53.48390 -6.22381 6101 ft 218 kts 316°
2026-05-04 13:21 53.49516 -6.24108 6621 ft 222 kts 317°
2026-05-04 13:21 53.50684 -6.25871 7119 ft 225 kts 317°
2026-05-04 13:21 53.51857 -6.27632 7611 ft 228 kts 317°
2026-05-04 13:22 53.53070 -6.29335 8117 ft 226 kts 329°
2026-05-04 13:22 53.54597 -6.30015 8631 ft 229 kts 352°
2026-05-04 13:22 53.55646 -6.30235 8977 ft 230 kts 352°
2026-05-04 13:22 53.57248 -6.30555 9501 ft 233 kts 352°
2026-05-04 13:23 53.58858 -6.30989 10043 ft 234 kts 348°
2026-05-04 13:23 53.60448 -6.31635 10520 ft 236 kts 343°
2026-05-04 13:23 53.62007 -6.32502 11014 ft 236 kts 340°
2026-05-04 13:23 53.63547 -6.33479 11509 ft 237 kts 339°
2026-05-04 13:24 53.65095 -6.34476 12016 ft 237 kts 339°
2026-05-04 13:24 53.66642 -6.35475 12523 ft 238 kts 339°
2026-05-04 13:24 53.68169 -6.36461 13034 ft 238 kts 339°
2026-05-04 13:25 53.71281 -6.38397 14089 ft 239 kts 340°
2026-05-04 13:25 53.72846 -6.39367 14584 ft 239 kts 340°
2026-05-04 13:25 53.74407 -6.40334 15051 ft 239 kts 340°
2026-05-04 13:25 53.75971 -6.41301 15543 ft 238 kts 340°
2026-05-04 13:26 53.77522 -6.42264 15981 ft 241 kts 340°
2026-05-04 13:26 53.79149 -6.43283 16035 ft 257 kts 338°
2026-05-04 13:26 53.80724 -6.44758 16059 ft 265 kts 335°
2026-05-04 13:26 53.82476 -6.45877 16069 ft 274 kts 333°
2026-05-04 13:27 53.83903 -6.48123 16083 ft 282 kts 306°
2026-05-04 13:27 53.85206 -6.50574 16082 ft 284 kts 324°
2026-05-04 13:27 53.86811 -6.52521 16086 ft 290 kts 319°
2026-05-04 13:27 53.88116 -6.55162 16090 ft 294 kts 308°
2026-05-04 13:28 53.89366 -6.57874 16080 ft 287 kts 309°
2026-05-04 13:28 53.90676 -6.60420 16076 ft 286 kts 315°
2026-05-04 13:28 53.92140 -6.62730 16081 ft 289 kts 321°
2026-05-04 13:28 53.93729 -6.64843 16080 ft 291 kts 323°
2026-05-04 13:29 53.95356 -6.66911 16081 ft 293 kts 323°
2026-05-04 13:29 53.96986 -6.69007 16082 ft 294 kts 323°
2026-05-04 13:29 53.98595 -6.71159 16083 ft 295 kts 322°
2026-05-04 13:29 54.00202 -6.73326 16086 ft 295 kts 322°
2026-05-04 13:30 54.01811 -6.75497 16083 ft 295 kts 322°
2026-05-04 13:30 54.03400 -6.77649 16081 ft 295 kts 322°
2026-05-04 13:30 54.05011 -6.79827 16084 ft 296 kts 322°
2026-05-04 13:30 54.06615 -6.82004 16081 ft 296 kts 322°
2026-05-04 13:31 54.08246 -6.84212 16081 ft 296 kts 322°
2026-05-04 13:31 54.09836 -6.86371 16082 ft 296 kts 322°
2026-05-04 13:31 54.11447 -6.88559 16082 ft 296 kts 322°
2026-05-04 13:31 54.13054 -6.90748 16083 ft 296 kts 322°
2026-05-04 13:32 54.14658 -6.92928 16086 ft 294 kts 322°
2026-05-04 13:32 54.16247 -6.95096 16087 ft 289 kts 322°
2026-05-04 13:32 54.17807 -6.97224 16084 ft 285 kts 322°
2026-05-04 13:32 54.19348 -6.99334 16087 ft 283 kts 322°
2026-05-04 13:33 54.20882 -7.01431 16086 ft 281 kts 322°
2026-05-04 13:33 54.22400 -7.03507 16085 ft 278 kts 321°
2026-05-04 13:33 54.23907 -7.05573 16084 ft 277 kts 322°
2026-05-04 13:33 54.25417 -7.07640 16087 ft 277 kts 322°
2026-05-04 13:34 54.26898 -7.09672 16084 ft 277 kts 322°
2026-05-04 13:34 54.28405 -7.11744 16083 ft 277 kts 321°
2026-05-04 13:34 54.29908 -7.13811 16083 ft 277 kts 321°
2026-05-04 13:34 54.31404 -7.15866 16086 ft 276 kts 321°
2026-05-04 13:35 54.32906 -7.17938 16085 ft 275 kts 321°
2026-05-04 13:35 54.35888 -7.22048 16083 ft 275 kts 321°
2026-05-04 13:35 54.37376 -7.24104 16086 ft 274 kts 321°
2026-05-04 13:36 54.38861 -7.26168 16086 ft 277 kts 321°
2026-05-04 13:36 54.40378 -7.28271 16085 ft 282 kts 321°
2026-05-04 13:36 54.41916 -7.30393 16086 ft 285 kts 321°
2026-05-04 13:36 54.43467 -7.32541 16086 ft 287 kts 321°
2026-05-04 13:37 54.45007 -7.34684 16085 ft 289 kts 321°
2026-05-04 13:37 54.46577 -7.36864 16087 ft 290 kts 321°
2026-05-04 13:37 54.48269 -7.39220 16082 ft 291 kts 321°
2026-05-04 13:37 54.49735 -7.41259 16082 ft 292 kts 321°
2026-05-04 13:38 54.51311 -7.43461 16087 ft 292 kts 321°
2026-05-04 13:38 54.52895 -7.45670 16079 ft 293 kts 321°
2026-05-04 13:38 54.54506 -7.47919 15589 ft 302 kts 321°
2026-05-04 13:38 54.56132 -7.50193 15105 ft 303 kts 321°
2026-05-04 13:39 54.57725 -7.52418 14629 ft 287 kts 321°
2026-05-04 13:39 54.59239 -7.54541 14151 ft 275 kts 321°
2026-05-04 13:39 54.60692 -7.56584 13653 ft 266 kts 321°
2026-05-04 13:39 54.62106 -7.58568 13107 ft 259 kts 320°
2026-05-04 13:40 54.63486 -7.60513 12573 ft 253 kts 320°
2026-05-04 13:40 54.64834 -7.62403 12065 ft 248 kts 320°
2026-05-04 13:40 54.66167 -7.64280 11554 ft 245 kts 320°
2026-05-04 13:40 54.67480 -7.66129 11059 ft 241 kts 320°
2026-05-04 13:41 54.68762 -7.67938 10563 ft 238 kts 320°
2026-05-04 13:41 54.70081 -7.69795 10273 ft 227 kts 319°
2026-05-04 13:41 54.71242 -7.71433 10043 ft 218 kts 319°
2026-05-04 13:42 54.73734 -7.74973 9727 ft 242 kts 320°
2026-05-04 13:42 54.75071 -7.76735 9742 ft 246 kts 322°
2026-05-04 13:42 54.76496 -7.78514 9449 ft 257 kts 323°
2026-05-04 13:42 54.77965 -7.80351 9049 ft 263 kts 323°
2026-05-04 13:43 54.79395 -7.82107 8790 ft 242 kts 323°
2026-05-04 13:43 54.80745 -7.83755 8536 ft 227 kts 323°
2026-05-04 13:43 54.81984 -7.85315 8273 ft 225 kts 322°
2026-05-04 13:43 54.83250 -7.86922 8113 ft 231 kts 322°
2026-05-04 13:44 54.84577 -7.88623 7834 ft 234 kts 322°
2026-05-04 13:44 54.85868 -7.90257 7558 ft 226 kts 322°
2026-05-04 13:44 54.87150 -7.91873 7295 ft 226 kts 322°
2026-05-04 13:44 54.88405 -7.93457 7025 ft 219 kts 322°
2026-05-04 13:45 54.89666 -7.95068 6748 ft 233 kts 322°
2026-05-04 13:45 54.91009 -7.96815 6496 ft 247 kts 321°
2026-05-04 13:45 54.92332 -7.98513 6200 ft 231 kts 322°
2026-05-04 13:45 54.93598 -8.00116 5907 ft 218 kts 323°
2026-05-04 13:46 54.94797 -8.01633 5637 ft 210 kts 322°
2026-05-04 13:46 54.96030 -8.03226 5348 ft 230 kts 322°
2026-05-04 13:46 54.97356 -8.04966 5077 ft 247 kts 322°
2026-05-04 13:46 54.98704 -8.06679 4779 ft 231 kts 323°
2026-05-04 13:47 54.99964 -8.08248 4507 ft 217 kts 324°
2026-05-04 13:47 55.01162 -8.09745 4257 ft 206 kts 323°
2026-05-04 13:47 55.02294 -8.11183 3957 ft 198 kts 323°
2026-05-04 13:47 55.03394 -8.12588 3621 ft 195 kts 323°
2026-05-04 13:48 55.04475 -8.13981 3305 ft 192 kts 322°
2026-05-04 13:48 55.05547 -8.15350 2969 ft 190 kts 322°
2026-05-04 13:48 55.06579 -8.16674 2712 ft 177 kts 322°
2026-05-04 13:48 55.07504 -8.17855 2536 ft 156 kts 321°
2026-05-04 13:49 55.08323 -8.18923 2461 ft 142 kts 320°
2026-05-04 13:49 55.09075 -8.19919 2265 ft 126 kts 321°
2026-05-04 13:49 55.09731 -8.20772 2144 ft 116 kts 321°
2026-05-04 13:49 55.10389 -8.21651 2086 ft 110 kts 321°
2026-05-04 13:50 55.11004 -8.22439 2042 ft 107 kts 321°
2026-05-04 13:50 55.11621 -8.23231 2044 ft 123 kts 319°
2026-05-04 13:50 55.12362 -8.24224 2063 ft 143 kts 320°
2026-05-04 13:50 55.13079 -8.25125 2038 ft 111 kts 322°
2026-05-04 13:51 55.13685 -8.25848 1802 ft 105 kts 320°
2026-05-04 13:51 55.14188 -8.26954 1523 ft 139 kts 287°
2026-05-04 13:51 55.13969 -8.28493 1247 ft 128 kts 227°
2026-05-04 13:51 55.13208 -8.29032 1105 ft 114 kts 198°
2026-05-04 13:52 55.11742 -8.29630 997 ft 126 kts 198°
2026-05-04 13:52 55.10951 -8.29980 950 ft 112 kts 198°
2026-05-04 13:52 55.10141 -8.30323 957 ft 125 kts 198°
2026-05-04 13:53 55.09348 -8.30762 942 ft 106 kts 205°
2026-05-04 13:53 55.08670 -8.31208 928 ft 115 kts 207°
2026-05-04 13:53 55.07981 -8.31689 854 ft 101 kts 207°
2026-05-04 13:54 55.06607 -8.32634 716 ft 99 kts 206°
2026-05-04 13:54 55.05973 -8.33082 432 ft 99 kts 207°
2026-05-04 13:54 55.04599 -8.33973 95 ft 103 kts 205°
2026-05-04 13:55 55.04162 -8.34269 55 ft 25 kts 201°
2026-05-04 13:55 55.03899 -8.34431 42 ft 16 kts 191°
2026-05-04 13:55 55.03888 -8.34435 43 ft 0 kts 126°
2026-05-04 13:56 55.03884 -8.34409 43 ft 4 kts 105°
2026-05-04 13:56 55.03875 -8.34329 40 ft 11 kts 99°
2026-05-04 13:56 55.03849 -8.34156 38 ft 5 kts 195°
2026-05-04 13:57 55.03838 -8.34185 38 ft 1 kts 279°
2026-05-04 13:57 55.03838 -8.34189 38 ft 0 kts 282°
2026-05-04 13:58 55.03838 -8.34188 38 ft 0 kts 282°